• Join FlightAware (Why Join?)
  • Login
  • US Flag 
05:02AM EDT


 

Airport Tracker/Info


-or-


 

Live Flight TrackerFlight Track Log ✈ DAL110 ✈ 04-Jul-2013 ✈ KATL - KLAX

Flight Track Log - Related Links

Times and Time Zones

All times are in EDT time to prevent confusion due to time zone crossing. See the DAL110 flight status page for this flight to view local times or setup timezone preferences in your user account.

Time Position Orientation Groundspeed Altitude Reporting Facility
EDT Latitude Longitude Course Direction KTS MPH feet Rate Location/Type
09:00AM 33.6500 -84.3833 270° West 180 207 2,600  Level Atlanta TRACON
09:01AM 33.6667 -84.3167 73° East 259 298 4,200 2,220 Climbing Atlanta TRACON
09:02AM 33.7500 -84.2833 18° North 303 349 7,300 2,460 Climbing Atlanta TRACON
09:03AM 33.8001 -84.4040 270° West  Level FlightAware Approximate
09:04AM 33.8000 -84.5551 270° West  Level FlightAware Approximate
09:04AM 33.8103 -84.4014 302° West 283 326 11,400  Level Atlanta Center
09:05AM 33.8001 -84.7063 270° West  Level FlightAware Approximate
09:05AM 33.8100 -84.5289 270° West 320 368 13,200  Level Atlanta Center
09:06AM 33.8136 -84.6364 272° West 353 406 15,700 2,340 Climbing Atlanta Center
09:07AM 33.8089 -84.7539 267° West 353 406 17,900 2,040 Climbing Atlanta Center
09:08AM 33.8058 -84.8939 269° West 365 420 19,800 1,680 Climbing Atlanta Center
09:09AM 33.7925 -85.0236 263° West 385 443 21,300 1,440 Climbing Atlanta Center
09:10AM 33.7747 -85.1558 261° West 396 456 22,700 1,200 Climbing Atlanta Center
09:11AM 33.7756 -85.2808 270° West 403 464 23,800 1,140 Climbing Atlanta Center
09:12AM 33.8011 -85.4239 282° West 423 487 25,000 1,140 Climbing Atlanta Center
09:13AM 33.8264 -85.5717 282° West 445 512 26,100 1,200 Climbing Atlanta Center
09:14AM 33.8600 -85.7175 286° West 451 519 27,400 1,200 Climbing Atlanta Center
09:15AM 33.9061 -85.8533 292° West 456 525 28,500 1,080 Climbing Atlanta Center
09:16AM 33.9497 -86.0022 289° West 456 525 29,600 960 Climbing Atlanta Center
09:17AM 33.9975 -86.1511 291° West 462 532 30,500 780 Climbing Atlanta Center
09:18AM 34.0386 -86.3025 288° West 473 544 31,200 840 Climbing Atlanta Center
09:19AM 34.0814 -86.4567 289° West 478 550 32,200 1,020 Climbing Atlanta Center
09:20AM 34.1264 -86.6108 289° West 483 556 33,300 900 Climbing Atlanta Center
09:21AM 34.1689 -86.7653 288° West 483 556 34,000 300 Climbing Atlanta Center
09:22AM 34.2222 -86.9661 288° West 513 590 34,000  Level Memphis Center
09:23AM 34.2639 -87.1178 288° West 495 570 34,000  Level Memphis Center
09:24AM 34.3072 -87.2594 290° West 476 548 34,000  Level Memphis Center
09:25AM 34.3486 -87.4139 288° West 471 542 34,000  Level Memphis Center
09:26AM 34.3897 -87.5683 288° West 478 550 34,000  Level Memphis Center
09:27AM 34.4303 -87.7158 288° West 478 550 34,000  Level Memphis Center
09:28AM 34.4733 -87.8681 289° West 478 550 34,000  Level Memphis Center
09:29AM 34.5072 -88.0056 287° West 478 550 34,000  Level Memphis Center
09:30AM 34.5522 -88.1808 287° West 485 558 34,000  Level Memphis Center
09:31AM 34.5922 -88.3339 288° West 490 564 34,000  Level Memphis Center
09:32AM 34.6322 -88.4867 288° West 490 564 34,000  Level Memphis Center
09:33AM 34.6697 -88.6172 289° West 474 545 34,000  Level Memphis Center
09:34AM 34.7072 -88.7706 287° West 469 540 34,000  Level Memphis Center
09:35AM 34.7508 -88.9342 288° West 469 540 34,000  Level Memphis Center
09:36AM 34.7900 -89.0878 287° West 476 548 34,000  Level Memphis Center
09:37AM 34.8292 -89.2389 288° West 471 542 34,000  Level Memphis Center
09:38AM 34.8681 -89.3928 287° West 477 549 34,000  Level Memphis Center
09:39AM 34.9086 -89.5417 288° West 477 549 34,000  Level Memphis Center
09:40AM 34.9428 -89.6706 288° West 483 556 34,000  Level Memphis Center
09:41AM 34.9917 -89.8653 287° West 504 580 34,000  Level Memphis Center
09:42AM 35.0278 -90.0222 286° West 497 572 34,000  Level Memphis Center
09:43AM 35.0614 -90.1769 285° West 486 559 34,000  Level Memphis Center
09:44AM 35.0969 -90.3342 285° West 479 551 34,000  Level Memphis Center
09:45AM 35.1344 -90.4917 286° West 473 544 34,000  Level Memphis Center
09:46AM 35.1678 -90.6492 285° West 473 544 34,000  Level Memphis Center
09:47AM 35.2028 -90.8044 285° West 468 539 34,000  Level Memphis Center
09:48AM 35.2375 -90.9622 285° West 473 544 34,000  Level Memphis Center
09:49AM 35.2681 -91.0972 286° West 473 544 34,000  Level Memphis Center
09:50AM 35.3025 -91.2553 285° West 473 544 34,000  Level Memphis Center
09:51AM 35.3367 -91.4108 285° West 473 544 34,000  Level Memphis Center
09:52AM 35.3686 -91.5692 284° West 473 544 34,000  Level Memphis Center
09:53AM 35.4047 -91.7250 286° West 473 544 34,000  Level Memphis Center
09:54AM 35.4342 -91.8808 283° West 473 544 34,000  Level Memphis Center
09:55AM 35.4697 -92.0369 286° West 473 544 34,000  Level Memphis Center
09:56AM 35.5028 -92.1958 284° West 473 544 34,000  Level Memphis Center
09:57AM 35.5358 -92.3497 285° West 473 544 34,000  Level Memphis Center
09:58AM 35.5667 -92.5061 284° West 473 544 34,000  Level Memphis Center
09:59AM 35.5994 -92.6628 284° West 473 544 34,000  Level Memphis Center
10:00AM 35.6319 -92.8194 284° West 482 555 34,000  Level Memphis Center
10:01AM 35.6678 -93.0019 284° West 482 555 34,000  Level Memphis Center
10:02AM 35.6958 -93.1433 284° West 464 534 34,000  Level Memphis Center
10:03AM 35.7300 -93.2981 285° West 459 528 34,000  Level Memphis Center
10:04AM 35.7575 -93.4472 283° West 459 528 34,000  Level Memphis Center
10:05AM 35.7892 -93.6019 284° West 459 528 34,000  Level Memphis Center
10:06AM 35.8183 -93.7542 283° West 459 528 34,000  Level Memphis Center
10:08AM 35.8806 -94.0578 284° West 460 529 34,000  Level Kansas City Center
10:09AM 35.9575 -94.2164 301° West 447 514 34,000  Level Kansas City Center
10:10AM 36.0211 -94.3525 300° West 454 522 34,000  Level Kansas City Center
10:11AM 36.0814 -94.4872 299° West 453 521 34,000  Level Kansas City Center
10:12AM 36.1436 -94.6214 300° West 450 518 34,000  Level Kansas City Center
10:13AM 36.2039 -94.7553 299° West 449 517 34,000 240 Level Kansas City Center
10:14AM 36.2636 -94.8900 299° West 447 514 34,600 660 Climbing Kansas City Center
10:15AM 36.3244 -95.0244 299° West 447 514 35,400 660 Climbing Kansas City Center
10:17AM 36.3775 -95.1767 293° West 452 520 36,000 240 Climbing Kansas City Center
10:18AM 36.3725 -95.3356 268° West 463 533 36,000  Level Kansas City Center
10:19AM 36.3619 -95.4936 265° West 463 533 36,000  Level Kansas City Center
10:20AM 36.3503 -95.6572 265° West 471 542 36,000  Level Kansas City Center
10:21AM 36.3389 -95.8242 265° West 471 542 36,000  Level Kansas City Center
10:22AM 36.3250 -96.0181 265° West 470 541 36,000  Level Kansas City Center
10:23AM 36.3125 -96.1800 265° West 470 541 36,000  Level Kansas City Center
10:24AM 36.3019 -96.3400 265° West 468 539 36,000  Level Kansas City Center
10:25AM 36.2892 -96.5006 264° West 467 537 36,000  Level Kansas City Center
10:26AM 36.2758 -96.6606 264° West 467 537 36,000  Level Kansas City Center
10:27AM 36.2625 -96.8406 265° West 466 536 36,000  Level Kansas City Center
10:28AM 36.2500 -96.9997 264° West 467 537 36,000  Level Kansas City Center
10:29AM 36.2356 -97.1578 264° West 466 536 36,000  Level Kansas City Center
10:30AM 36.2233 -97.3172 265° West 467 537 36,000  Level Kansas City Center
10:31AM 36.2100 -97.4769 264° West 470 541 36,000  Level Kansas City Center
10:32AM 36.1950 -97.6353 263° West 468 539 36,000  Level Kansas City Center
10:33AM 36.1822 -97.7953 264° West 469 540 36,000  Level Kansas City Center
10:34AM 36.1644 -97.9878 264° West 470 541 36,000  Level Kansas City Center
10:35AM 36.1494 -98.1497 264° West 471 542 36,000  Level Kansas City Center
10:36AM 36.1342 -98.3117 263° West 472 543 36,000  Level Kansas City Center
10:37AM 36.1194 -98.4733 264° West 473 544 36,000  Level Kansas City Center
10:38AM 36.1036 -98.6344 263° West 471 542 36,000  Level Kansas City Center
10:39AM 36.0897 -98.7889 264° West 471 542 36,000  Level Kansas City Center
10:40AM 36.0692 -98.9828 263° West 474 545 36,000  Level Kansas City Center
10:41AM 36.0533 -99.1425 263° West 473 544 36,000  Level Kansas City Center
10:42AM 36.0381 -99.3047 263° West 475 547 36,000  Level Kansas City Center
10:43AM 36.0208 -99.4614 262° West 476 548 36,000  Level Kansas City Center
10:44AM 36.0042 -99.6236 263° West 475 547 36,000  Level Kansas City Center
10:45AM 35.9867 -99.7864 262° West 477 549 36,000  Level Kansas City Center
10:46AM 35.9661 -99.9808 263° West 477 549 36,000  Level Kansas City Center
10:47AM 35.9489 -100.1433 263° West 477 549 36,000  Level Kansas City Center
10:48AM 35.9314 -100.3050 262° West 475 547 36,000  Level Kansas City Center
10:49AM 35.9150 -100.4486 262° West 474 545 36,000  Level Kansas City Center
10:50AM 35.8939 -100.6419 262° West 475 547 36,000  Level Kansas City Center
10:51AM 35.8742 -100.8019 261° West 475 547 36,000  Level Kansas City Center
10:52AM 35.8564 -100.9617 262° West 474 545 36,000  Level Kansas City Center
10:54AM 35.8375 -101.1206 262° West 472 543 36,000  Level Kansas City Center
10:55AM 35.8200 -101.2781 262° West 469 540 36,000  Level Kansas City Center
10:56AM 35.7978 -101.4642 262° West 464 534 36,000  Level Albuquerque Center
10:57AM 35.7800 -101.6192 262° West 462 532 36,000  Level Albuquerque Center
10:58AM 35.7583 -101.8061 262° West 464 534 36,000  Level Albuquerque Center
10:59AM 35.7383 -101.9603 261° West 462 532 36,000  Level Albuquerque Center
11:00AM 35.7250 -102.1161 264° West 462 532 36,000  Level Albuquerque Center
11:01AM 35.7156 -102.2722 266° West 461 531 36,000  Level Albuquerque Center
11:02AM 35.7083 -102.4275 267° West 459 528 36,000  Level Albuquerque Center
11:03AM 35.6994 -102.5867 266° West 466 536 36,000  Level Albuquerque Center
11:04AM 35.6886 -102.7753 266° West 464 534 36,000  Level Albuquerque Center
11:05AM 35.6794 -102.9375 266° West 467 537 36,000  Level Albuquerque Center
11:06AM 35.6678 -103.0994 265° West 471 542 36,000  Level Albuquerque Center
11:07AM 35.6589 -103.2603 266° West 470 541 36,000  Level Albuquerque Center
11:08AM 35.6481 -103.4228 265° West 473 544 36,000  Level Albuquerque Center
11:09AM 35.6358 -103.5844 265° West 473 544 36,000  Level Albuquerque Center
11:10AM 35.6256 -103.7458 266° West 473 544 36,000  Level Albuquerque Center
11:11AM 35.6153 -103.9081 266° West 474 545 36,000  Level Albuquerque Center
11:12AM 35.6014 -104.0950 265° West 472 543 36,000  Level Albuquerque Center
11:13AM 35.5900 -104.2553 265° West 472 543 36,000  Level Albuquerque Center
11:14AM 35.5781 -104.4158 265° West 473 544 36,000  Level Albuquerque Center
11:15AM 35.5661 -104.5769 265° West 474 545 36,000  Level Albuquerque Center
11:16AM 35.5536 -104.7378 265° West 473 544 36,000  Level Albuquerque Center
11:17AM 35.5406 -104.8992 264° West 472 543 36,000  Level Albuquerque Center
11:18AM 35.5256 -105.0892 265° West 475 547 36,000  Level Albuquerque Center
11:19AM 35.5128 -105.2500 264° West 471 542 36,000  Level Albuquerque Center
11:20AM 35.4978 -105.4125 264° West 475 547 36,000  Level Albuquerque Center
11:21AM 35.4864 -105.5725 265° West 471 542 36,000  Level Albuquerque Center
11:22AM 35.4731 -105.7347 264° West 472 543 36,000  Level Albuquerque Center
11:24AM 35.4578 -105.8911 263° West 477 549 36,000  Level Albuquerque Center
11:25AM 35.4456 -106.0525 265° West 477 549 36,000  Level Albuquerque Center
11:26AM 35.4292 -106.2467 264° West 479 551 36,000  Level Albuquerque Center
11:27AM 35.4147 -106.4086 264° West 480 552 36,000  Level Albuquerque Center
11:28AM 35.4000 -106.5689 264° West 479 551 36,000  Level Albuquerque Center
11:29AM 35.3864 -106.7283 264° West 476 548 36,000  Level Albuquerque Center
11:30AM 35.3692 -106.8975 263° West 475 547 36,000  Level Albuquerque Center
11:31AM 35.3517 -107.0767 263° West 474 545 36,000  Level Albuquerque Center
11:32AM 35.3358 -107.2361 263° West 474 545 36,000  Level Albuquerque Center
11:33AM 35.3200 -107.3964 263° West 477 549 36,000  Level Albuquerque Center
11:34AM 35.3031 -107.5636 263° West 473 544 36,000  Level Albuquerque Center
11:35AM 35.2858 -107.7158 262° West 472 543 36,000  Level Albuquerque Center
11:36AM 35.2686 -107.8931 263° West 469 540 36,000  Level Albuquerque Center
11:37AM 35.2528 -108.0453 263° West 469 540 36,000  Level Albuquerque Center
11:38AM 35.2344 -108.2228 263° West 470 541 36,000  Level Albuquerque Center
11:39AM 35.2186 -108.3756 263° West 471 542 36,000  Level Albuquerque Center
11:40AM 35.2022 -108.5297 263° West 473 544 36,000  Level Albuquerque Center
11:41AM 35.1825 -108.7097 262° West 475 547 36,000  Level Albuquerque Center
11:42AM 35.1653 -108.8636 262° West 475 547 36,000  Level Albuquerque Center
11:43AM 35.1453 -109.0425 262° West 475 547 36,000  Level Albuquerque Center
11:44AM 35.1275 -109.1975 262° West 477 549 36,000  Level Albuquerque Center
11:45AM 35.1100 -109.3503 262° West 476 548 36,000  Level Albuquerque Center
11:46AM 35.0894 -109.5294 262° West 475 547 36,000  Level Albuquerque Center
11:47AM 35.0717 -109.6814 262° West 473 544 36,000  Level Albuquerque Center
11:48AM 35.0511 -109.8592 262° West 473 544 36,000  Level Albuquerque Center
11:49AM 35.0339 -110.0125 262° West 474 545 36,000  Level Albuquerque Center
11:50AM 35.0142 -110.1639 261° West 471 542 36,000  Level Albuquerque Center
11:51AM 34.9922 -110.3392 261° West 469 540 36,000  Level Albuquerque Center
11:52AM 34.9717 -110.4886 261° West 468 539 36,000  Level Albuquerque Center
11:53AM 34.9478 -110.6650 261° West 470 541 36,000  Level Albuquerque Center
11:54AM 34.9292 -110.8047 261° West 468 539 36,000  Level Albuquerque Center
11:55AM 34.9092 -110.9644 261° West 467 537 36,000  Level Albuquerque Center
11:56AM 34.8886 -111.1161 261° West 468 539 36,000  Level Albuquerque Center
11:57AM 34.8647 -111.3033 261° West 470 541 36,000  Level Albuquerque Center
11:58AM 34.8436 -111.4575 261° West 466 536 36,000  Level Albuquerque Center
12:00PM 34.8225 -111.6125 261° West 468 539 36,000  Level Albuquerque Center
12:01PM 34.8011 -111.7758 261° West 466 536 36,000  Level Albuquerque Center
12:02PM 34.7797 -111.9317 261° West 467 537 36,000  Level Albuquerque Center
12:03PM 34.7572 -112.0872 260° West 469 540 36,000  Level Albuquerque Center
12:04PM 34.7372 -112.2328 261° West 470 541 36,000  Level Albuquerque Center
12:05PM 34.7133 -112.3994 260° West 470 541 36,000  Level Albuquerque Center
12:06PM 34.6914 -112.5564 260° West 471 542 36,000  Level Albuquerque Center
12:07PM 34.6756 -112.7144 263° West 472 543 36,000  Level Albuquerque Center
12:08PM 34.6519 -112.9022 261° West 470 541 36,000  Level Albuquerque Center
12:09PM 34.6331 -113.0597 262° West 471 542 36,000  Level Albuquerque Center
12:10PM 34.6131 -113.2161 261° West 471 542 36,000  Level Albuquerque Center
12:11PM 34.5947 -113.3722 262° West 470 541 36,000  Level Albuquerque Center
12:12PM 34.5750 -113.5289 261° West 470 541 36,000  Level Albuquerque Center
12:13PM 34.5517 -113.6908 260° West 473 544 36,000  Level Albuquerque Center
12:14PM 34.5194 -113.8453 256° West 472 543 36,000  Level Albuquerque Center
12:15PM 34.4942 -114.0014 259° West 471 542 36,000  Level Albuquerque Center
12:16PM 34.4661 -114.1875 260° West 469 540 36,000  Level Albuquerque Center
12:17PM 34.4397 -114.3425 258° West 469 540 36,000  Level Albuquerque Center
12:18PM 34.4156 -114.4969 259° West 467 537 36,000  Level Albuquerque Center
12:19PM 34.3839 -114.6931 259° West 467 537 36,000  Level Los Angeles Center
12:20PM 34.3575 -114.8467 258° West 469 540 36,000  Level Los Angeles Center
12:21PM 34.3322 -114.9997 259° West 466 536 36,000  Level Los Angeles Center
12:22PM 34.3064 -115.1531 259° West 468 539 36,000  Level Los Angeles Center
12:23PM 34.2803 -115.3072 258° West 468 539 36,000  Level Los Angeles Center
12:24PM 34.2536 -115.4606 258° West 470 541 36,000  Level Los Angeles Center
12:25PM 34.2208 -115.6428 258° West 466 536 36,000 -480 Level Los Angeles Center
12:26PM 34.1936 -115.7961 258° West 467 537 35,100 -1,800 Descending Los Angeles Center
12:27PM 34.1664 -115.9556 258° West 475 547 32,400 -2,160 Descending Los Angeles Center
12:29PM 34.1364 -116.1208 258° West 499 574 30,700 -1,560 Descending Los Angeles Center
12:30PM 34.1086 -116.2783 258° West 495 570 29,200 -1,920 Descending Los Angeles Center
12:31PM 34.0769 -116.4475 257° West 444 511 26,700 -2,160 Descending Los Angeles Center
12:32PM 34.0531 -116.5814 258° West 417 480 24,800 -1,860 Descending Los Angeles Center
12:33PM 34.0289 -116.7119 257° West 404 465 22,900 -1,800 Descending Los Angeles Center
12:34PM 34.0056 -116.8375 257° West 392 451 21,100 -1,860 Descending Los Angeles Center
12:34PM 33.9833 -116.9167 251° West 374 430 20,100 -1,860 Descending Southern California TRACON
12:35PM 33.9667 -117.0333 260° West 341 392 18,300 -1,680 Descending Southern California TRACON
12:36PM 33.9667 -117.1333 270° West 330 380 17,000 -1,380 Descending Southern California TRACON
12:37PM 34.0333 -117.2167 314° West 338 389 15,600 -1,440 Descending Southern California TRACON
12:38PM 34.0500 -117.3167 281° West 326 375 14,100 -1,500 Descending Southern California TRACON
12:39PM 34.0500 -117.4333 270° West 317 365 12,700 -1,200 Descending Southern California TRACON
12:40PM 34.0333 -117.5333 259° West 296 341 11,700 -840 Descending Southern California TRACON
12:41PM 34.0333 -117.6333 270° West 309 356 11,100 -900 Descending Southern California TRACON
12:42PM 34.0167 -117.7333 259° West 290 334 9,900 -1,380 Descending Southern California TRACON
12:43PM 34.0167 -117.8333 270° West 297 342 8,400 -1,200 Descending Southern California TRACON
12:45PM 33.9922 -117.9969 260° West 270 311 6,600 -1,080 Descending Los Angeles Center
12:46PM 33.9861 -118.0731 264° West 237 273 5,300 -1,140 Descending Los Angeles Center
12:47PM 33.9794 -118.1392 263° West 209 241 4,300 -1,020 Descending Los Angeles Center
12:48PM 33.9722 -118.2092 263° West 183 211 3,200 -1,080 Descending Los Angeles Center